Airfield :
LOGIN :

Register | Disclaimer

   EN    FR    IT 

 










Legend :    VFR   Marginal VFR   IFR   Intensive IFR   Very Intensive IFR
Visi :
Ceiling :
>= 8 km
>= 3000ft
5 to 8 km
1000 to 3000 ft
1500m to 5 km
500 to 1000 ft
800 to 1500m
200 to 500 ft
< 800m
< 200 ft
Symbols :   Thunderstorms  Fog  Heavy snow  Heavy precipitations  Wind > 20 kt
SIGMETs :     Misc.  Thunderstorms  Icing  Turbulence  Mountain Waves  Volcanic Ashes






- Airport Elevation : 407 ft


EGDM - MoD Boscombe Down Amesbury

CURRENT METAR :
  • 020820Z 21003KT 9999 FEW020 BKN150 BKN200 03/02 Q1020 BECMG SCT020 RMK BLU BECMG WHT

EXPIRED METARs :
  • 020750Z 17003KT CAVOK 02/02 Q1020 NOSIG RMK BLU BLU
  • 020650Z 17002KT CAVOK 03/02 Q1021 RMK BLU
  • 020550Z AUTO 29004KT 9999 FEW120/// BKN170/// BKN220/// 03/02 Q1021

TAF TAF EGDM
Valid from the 02 at 09:00 until the 02 at 18:00 UTC


020747Z 0209/0218 22004KT 9999 FEW020
BECMG 0209/0211 BKN015
BECMG 0211/0213 BKN008
PROB30
TEMPO 0212/0217 7000 -RADZ
BECMG 0216/0218 FEW010



MET'MAP, your aeronautical weather chart ! - Copyright ORBIFLY December 2007 - Disclaimer

ORBIFLY MET'MAP TEAM :

Programming & Development : Alexandra Zaïnal
Concept & original design : Baudouin d'Aumeries
Assistance for programming : Marc-Olivier Méhu
Technical & hardware support : Manuel Goepfert

Contact : metmap@orbifly.com




SOURCES & CREDITS :

   NOAA